sensor_id;sensor_type;location;lat;lon;timestamp;temperature;humidity
19870;DHT22;10097;50.862;4.696;2022-11-02T00:01:26;14.50;99.90
19870;DHT22;10097;50.862;4.696;2022-11-02T00:03:52;14.50;99.90
19870;DHT22;10097;50.862;4.696;2022-11-02T00:06:18;14.40;99.90
19870;DHT22;10097;50.862;4.696;2022-11-02T00:08:44;14.40;99.90
19870;DHT22;10097;50.862;4.696;2022-11-02T00:11:10;14.40;99.90
19870;DHT22;10097;50.862;4.696;2022-11-02T00:13:35;14.40;99.90
19870;DHT22;10097;50.862;4.696;2022-11-02T00:16:07;14.40;99.90
19870;DHT22;10097;50.862;4.696;2022-11-02T00:18:34;14.40;99.90
19870;DHT22;10097;50.862;4.696;2022-11-02T00:21:01;14.40;99.90
19870;DHT22;10097;50.862;4.696;2022-11-02T00:23:28;14.30;99.90
19870;DHT22;10097;50.862;4.696;2022-11-02T00:25:55;14.30;99.90
19870;DHT22;10097;50.862;4.696;2022-11-02T00:28:21;14.30;99.90
19870;DHT22;10097;50.862;4.696;2022-11-02T00:30:47;14.30;99.90
19870;DHT22;10097;50.862;4.696;2022-11-02T00:33:12;14.30;99.90
19870;DHT22;10097;50.862;4.696;2022-11-02T00:35:38;14.30;99.90
19870;DHT22;10097;50.862;4.696;2022-11-02T00:38:04;14.20;99.90
19870;DHT22;10097;50.862;4.696;2022-11-02T00:40:30;14.30;99.90
19870;DHT22;10097;50.862;4.696;2022-11-02T00:42:56;14.30;99.90
19870;DHT22;10097;50.862;4.696;2022-11-02T00:45:22;14.20;99.90
19870;DHT22;10097;50.862;4.696;2022-11-02T00:47:48;14.10;99.90
19870;DHT22;10097;50.862;4.696;2022-11-02T00:50:14;14.10;99.90
19870;DHT22;10097;50.862;4.696;2022-11-02T00:52:40;14.10;99.90
19870;DHT22;10097;50.862;4.696;2022-11-02T00:55:07;14.10;99.90
19870;DHT22;10097;50.862;4.696;2022-11-02T00:57:34;14.20;99.90
19870;DHT22;10097;50.862;4.696;2022-11-02T00:59:59;14.20;99.90
19870;DHT22;10097;50.862;4.696;2022-11-02T01:02:25;14.20;99.90
19870;DHT22;10097;50.862;4.696;2022-11-02T01:04:51;14.20;99.90
19870;DHT22;10097;50.862;4.696;2022-11-02T01:07:17;14.20;99.90
19870;DHT22;10097;50.862;4.696;2022-11-02T01:09:43;14.20;99.90
19870;DHT22;10097;50.862;4.696;2022-11-02T01:12:08;14.10;99.90
19870;DHT22;10097;50.862;4.696;2022-11-02T01:14:34;14.10;99.90
19870;DHT22;10097;50.862;4.696;2022-11-02T01:17:00;14.00;99.90
19870;DHT22;10097;50.862;4.696;2022-11-02T01:19:26;14.00;99.90
19870;DHT22;10097;50.862;4.696;2022-11-02T01:21:52;14.00;99.90
19870;DHT22;10097;50.862;4.696;2022-11-02T01:24:17;14.00;99.90
19870;DHT22;10097;50.862;4.696;2022-11-02T01:26:43;14.10;99.90
19870;DHT22;10097;50.862;4.696;2022-11-02T01:29:08;14.10;99.90
19870;DHT22;10097;50.862;4.696;2022-11-02T01:31:34;14.00;99.90
19870;DHT22;10097;50.862;4.696;2022-11-02T01:34:00;14.00;99.90
19870;DHT22;10097;50.862;4.696;2022-11-02T01:36:25;14.00;99.90
19870;DHT22;10097;50.862;4.696;2022-11-02T01:38:51;13.90;99.90
19870;DHT22;10097;50.862;4.696;2022-11-02T01:41:19;13.90;99.90
19870;DHT22;10097;50.862;4.696;2022-11-02T01:43:45;13.90;99.90
19870;DHT22;10097;50.862;4.696;2022-11-02T01:48:54;13.90;99.90
19870;DHT22;10097;50.862;4.696;2022-11-02T01:51:21;13.90;99.90
19870;DHT22;10097;50.862;4.696;2022-11-02T01:53:50;13.80;99.90
19870;DHT22;10097;50.862;4.696;2022-11-02T01:56:19;13.80;99.90
19870;DHT22;10097;50.862;4.696;2022-11-02T01:58:51;13.80;99.90
19870;DHT22;10097;50.862;4.696;2022-11-02T02:01:18;13.80;99.90
19870;DHT22;10097;50.862;4.696;2022-11-02T02:03:45;13.80;99.90
19870;DHT22;10097;50.862;4.696;2022-11-02T02:06:13;13.70;99.90
19870;DHT22;10097;50.862;4.696;2022-11-02T02:08:42;13.60;99.90
19870;DHT22;10097;50.862;4.696;2022-11-02T02:13:55;13.70;99.90
19870;DHT22;10097;50.862;4.696;2022-11-02T02:17:07;13.70;99.90
19870;DHT22;10097;50.862;4.696;2022-11-02T02:19:40;13.70;99.90
19870;DHT22;10097;50.862;4.696;2022-11-02T02:22:22;13.60;99.90
19870;DHT22;10097;50.862;4.696;2022-11-02T02:25:56;13.60;99.90
19870;DHT22;10097;50.862;4.696;2022-11-02T02:28:19;13.60;99.90
19870;DHT22;10097;50.862;4.696;2022-11-02T02:30:55;13.60;99.90
19870;DHT22;10097;50.862;4.696;2022-11-02T02:33:31;13.60;99.90
19870;DHT22;10097;50.862;4.696;2022-11-02T02:42:06;13.70;99.90
19870;DHT22;10097;50.862;4.696;2022-11-02T02:44:36;13.60;99.90
19870;DHT22;10097;50.862;4.696;2022-11-02T02:47:17;13.60;99.90
19870;DHT22;10097;50.862;4.696;2022-11-02T02:49:54;13.60;99.90
19870;DHT22;10097;50.862;4.696;2022-11-02T02:52:22;13.50;99.90
19870;DHT22;10097;50.862;4.696;2022-11-02T02:54:50;13.50;99.90
19870;DHT22;10097;50.862;4.696;2022-11-02T02:57:19;13.50;99.90
19870;DHT22;10097;50.862;4.696;2022-11-02T02:59:47;13.50;99.90
19870;DHT22;10097;50.862;4.696;2022-11-02T03:02:21;13.40;99.90
19870;DHT22;10097;50.862;4.696;2022-11-02T03:04:48;13.50;99.90
19870;DHT22;10097;50.862;4.696;2022-11-02T03:07:51;13.50;99.90
19870;DHT22;10097;50.862;4.696;2022-11-02T03:10:20;13.50;99.90
19870;DHT22;10097;50.862;4.696;2022-11-02T03:13:08;13.40;99.90
19870;DHT22;10097;50.862;4.696;2022-11-02T03:15:41;13.30;99.90
19870;DHT22;10097;50.862;4.696;2022-11-02T03:21:41;13.30;99.90
19870;DHT22;10097;50.862;4.696;2022-11-02T03:24:18;13.20;99.90
19870;DHT22;10097;50.862;4.696;2022-11-02T03:29:41;13.30;99.90
19870;DHT22;10097;50.862;4.696;2022-11-02T03:32:40;13.30;99.90
19870;DHT22;10097;50.862;4.696;2022-11-02T03:35:37;13.30;99.90
19870;DHT22;10097;50.862;4.696;2022-11-02T03:38:13;13.40;99.90
19870;DHT22;10097;50.862;4.696;2022-11-02T03:40:44;13.30;99.90
19870;DHT22;10097;50.862;4.696;2022-11-02T03:43:12;13.20;99.90
19870;DHT22;10097;50.862;4.696;2022-11-02T03:45:42;13.20;99.90
19870;DHT22;10097;50.862;4.696;2022-11-02T03:48:12;13.20;99.90
19870;DHT22;10097;50.862;4.696;2022-11-02T03:50:43;13.10;99.90
19870;DHT22;10097;50.862;4.696;2022-11-02T03:53:14;13.10;99.90
19870;DHT22;10097;50.862;4.696;2022-11-02T03:55:46;13.20;99.90
19870;DHT22;10097;50.862;4.696;2022-11-02T03:58:12;13.20;99.90
19870;DHT22;10097;50.862;4.696;2022-11-02T04:00:44;13.10;99.90
19870;DHT22;10097;50.862;4.696;2022-11-02T04:03:12;13.10;99.90
19870;DHT22;10097;50.862;4.696;2022-11-02T04:05:38;13.20;99.90
19870;DHT22;10097;50.862;4.696;2022-11-02T04:08:04;13.20;99.90
19870;DHT22;10097;50.862;4.696;2022-11-02T04:10:50;13.20;99.90
19870;DHT22;10097;50.862;4.696;2022-11-02T04:13:35;13.20;99.90
19870;DHT22;10097;50.862;4.696;2022-11-02T04:16:19;13.20;99.90
19870;DHT22;10097;50.862;4.696;2022-11-02T04:18:45;13.20;99.90
19870;DHT22;10097;50.862;4.696;2022-11-02T04:21:30;13.00;99.90
19870;DHT22;10097;50.862;4.696;2022-11-02T04:23:56;13.00;99.90
19870;DHT22;10097;50.862;4.696;2022-11-02T04:26:40;13.10;99.90
19870;DHT22;10097;50.862;4.696;2022-11-02T04:29:06;13.20;99.90
19870;DHT22;10097;50.862;4.696;2022-11-02T04:31:32;13.20;99.90
19870;DHT22;10097;50.862;4.696;2022-11-02T04:33:57;13.20;99.90
19870;DHT22;10097;50.862;4.696;2022-11-02T04:36:24;13.00;99.90
19870;DHT22;10097;50.862;4.696;2022-11-02T04:38:50;13.00;99.90
19870;DHT22;10097;50.862;4.696;2022-11-02T04:41:20;13.00;99.90
19870;DHT22;10097;50.862;4.696;2022-11-02T04:44:05;12.90;99.90
19870;DHT22;10097;50.862;4.696;2022-11-02T04:46:33;12.90;99.90
19870;DHT22;10097;50.862;4.696;2022-11-02T04:49:00;13.00;99.90
19870;DHT22;10097;50.862;4.696;2022-11-02T04:51:27;13.10;99.90
19870;DHT22;10097;50.862;4.696;2022-11-02T04:53:54;13.10;99.90
19870;DHT22;10097;50.862;4.696;2022-11-02T04:56:20;13.10;99.90
19870;DHT22;10097;50.862;4.696;2022-11-02T04:58:51;13.20;99.90
19870;DHT22;10097;50.862;4.696;2022-11-02T05:01:17;13.10;99.90
19870;DHT22;10097;50.862;4.696;2022-11-02T05:03:46;13.00;99.90
19870;DHT22;10097;50.862;4.696;2022-11-02T05:06:13;13.00;99.90
19870;DHT22;10097;50.862;4.696;2022-11-02T05:08:39;12.90;99.90
19870;DHT22;10097;50.862;4.696;2022-11-02T05:11:04;12.90;99.90
19870;DHT22;10097;50.862;4.696;2022-11-02T05:13:30;12.80;99.90
19870;DHT22;10097;50.862;4.696;2022-11-02T05:15:57;12.80;99.90
19870;DHT22;10097;50.862;4.696;2022-11-02T05:18:24;12.70;99.90
19870;DHT22;10097;50.862;4.696;2022-11-02T05:20:56;12.60;99.90
19870;DHT22;10097;50.862;4.696;2022-11-02T05:23:22;12.50;99.90
19870;DHT22;10097;50.862;4.696;2022-11-02T05:26:14;12.60;99.90
19870;DHT22;10097;50.862;4.696;2022-11-02T05:28:40;12.70;99.90
19870;DHT22;10097;50.862;4.696;2022-11-02T05:31:05;12.60;99.90
19870;DHT22;10097;50.862;4.696;2022-11-02T05:33:32;12.60;99.90
19870;DHT22;10097;50.862;4.696;2022-11-02T05:35:59;12.50;99.90
19870;DHT22;10097;50.862;4.696;2022-11-02T05:38:25;12.50;99.90
19870;DHT22;10097;50.862;4.696;2022-11-02T05:40:56;12.40;99.90
19870;DHT22;10097;50.862;4.696;2022-11-02T05:43:23;12.40;99.90
19870;DHT22;10097;50.862;4.696;2022-11-02T05:45:58;12.40;99.90
19870;DHT22;10097;50.862;4.696;2022-11-02T05:48:25;12.40;99.90
19870;DHT22;10097;50.862;4.696;2022-11-02T05:50:55;12.30;99.90
19870;DHT22;10097;50.862;4.696;2022-11-02T05:53:22;12.30;99.90
19870;DHT22;10097;50.862;4.696;2022-11-02T05:55:48;12.40;99.90
19870;DHT22;10097;50.862;4.696;2022-11-02T05:58:14;12.40;99.90
19870;DHT22;10097;50.862;4.696;2022-11-02T06:00:39;12.40;99.90
19870;DHT22;10097;50.862;4.696;2022-11-02T06:03:05;12.50;99.90
19870;DHT22;10097;50.862;4.696;2022-11-02T06:05:31;12.50;99.90
19870;DHT22;10097;50.862;4.696;2022-11-02T06:07:58;12.50;99.90
19870;DHT22;10097;50.862;4.696;2022-11-02T06:10:25;12.40;99.90
19870;DHT22;10097;50.862;4.696;2022-11-02T06:12:58;12.40;99.90
19870;DHT22;10097;50.862;4.696;2022-11-02T06:15:25;12.30;99.90
19870;DHT22;10097;50.862;4.696;2022-11-02T06:17:51;12.40;99.90
19870;DHT22;10097;50.862;4.696;2022-11-02T06:20:18;12.40;99.90
19870;DHT22;10097;50.862;4.696;2022-11-02T06:22:44;12.30;99.90
19870;DHT22;10097;50.862;4.696;2022-11-02T06:25:10;12.30;99.90
19870;DHT22;10097;50.862;4.696;2022-11-02T06:27:36;12.30;99.90
19870;DHT22;10097;50.862;4.696;2022-11-02T06:30:03;12.30;99.90
19870;DHT22;10097;50.862;4.696;2022-11-02T06:32:29;12.40;99.90
19870;DHT22;10097;50.862;4.696;2022-11-02T06:34:54;12.30;99.90
19870;DHT22;10097;50.862;4.696;2022-11-02T06:37:20;12.20;99.90
19870;DHT22;10097;50.862;4.696;2022-11-02T06:39:47;12.10;99.90
19870;DHT22;10097;50.862;4.696;2022-11-02T06:42:12;12.10;99.90
19870;DHT22;10097;50.862;4.696;2022-11-02T06:44:38;12.10;99.90
19870;DHT22;10097;50.862;4.696;2022-11-02T06:47:04;12.10;99.90
19870;DHT22;10097;50.862;4.696;2022-11-02T06:49:30;12.10;99.90
19870;DHT22;10097;50.862;4.696;2022-11-02T06:51:56;12.00;99.90
19870;DHT22;10097;50.862;4.696;2022-11-02T06:54:22;12.10;99.90
19870;DHT22;10097;50.862;4.696;2022-11-02T06:56:47;12.10;99.90
19870;DHT22;10097;50.862;4.696;2022-11-02T06:59:13;12.10;99.90
19870;DHT22;10097;50.862;4.696;2022-11-02T07:01:39;12.00;99.90
19870;DHT22;10097;50.862;4.696;2022-11-02T07:04:04;12.10;99.90
19870;DHT22;10097;50.862;4.696;2022-11-02T07:06:30;12.00;99.90
19870;DHT22;10097;50.862;4.696;2022-11-02T07:08:55;12.10;99.90
19870;DHT22;10097;50.862;4.696;2022-11-02T07:11:21;12.10;99.90
19870;DHT22;10097;50.862;4.696;2022-11-02T07:13:47;12.10;99.90
19870;DHT22;10097;50.862;4.696;2022-11-02T07:16:13;12.10;99.90
19870;DHT22;10097;50.862;4.696;2022-11-02T07:18:39;12.00;99.90
19870;DHT22;10097;50.862;4.696;2022-11-02T07:21:06;12.00;99.90
19870;DHT22;10097;50.862;4.696;2022-11-02T07:23:31;12.00;99.90
19870;DHT22;10097;50.862;4.696;2022-11-02T07:25:59;12.10;99.90
19870;DHT22;10097;50.862;4.696;2022-11-02T07:28:25;12.10;99.90
19870;DHT22;10097;50.862;4.696;2022-11-02T07:30:53;12.20;99.90
19870;DHT22;10097;50.862;4.696;2022-11-02T07:33:19;12.10;99.90
19870;DHT22;10097;50.862;4.696;2022-11-02T07:35:45;12.00;99.90
19870;DHT22;10097;50.862;4.696;2022-11-02T07:38:11;12.00;99.90
19870;DHT22;10097;50.862;4.696;2022-11-02T07:40:37;12.10;99.90
19870;DHT22;10097;50.862;4.696;2022-11-02T07:43:04;12.10;99.90
19870;DHT22;10097;50.862;4.696;2022-11-02T07:45:30;12.10;99.90
19870;DHT22;10097;50.862;4.696;2022-11-02T07:47:56;12.10;99.90
19870;DHT22;10097;50.862;4.696;2022-11-02T07:50:23;12.10;99.90
19870;DHT22;10097;50.862;4.696;2022-11-02T07:52:51;12.10;99.90
19870;DHT22;10097;50.862;4.696;2022-11-02T07:55:22;12.10;99.90
19870;DHT22;10097;50.862;4.696;2022-11-02T07:58:02;12.20;99.90
19870;DHT22;10097;50.862;4.696;2022-11-02T08:00:30;12.20;99.90
19870;DHT22;10097;50.862;4.696;2022-11-02T08:02:58;12.20;99.90
19870;DHT22;10097;50.862;4.696;2022-11-02T08:05:25;12.20;99.90
19870;DHT22;10097;50.862;4.696;2022-11-02T08:08:00;12.30;99.90
19870;DHT22;10097;50.862;4.696;2022-11-02T08:10:28;12.30;99.90
19870;DHT22;10097;50.862;4.696;2022-11-02T08:12:54;12.30;99.90
19870;DHT22;10097;50.862;4.696;2022-11-02T08:15:19;12.20;99.90
19870;DHT22;10097;50.862;4.696;2022-11-02T08:17:45;12.30;99.90
19870;DHT22;10097;50.862;4.696;2022-11-02T08:20:11;12.40;99.90
19870;DHT22;10097;50.862;4.696;2022-11-02T08:22:37;12.40;99.90
19870;DHT22;10097;50.862;4.696;2022-11-02T08:25:04;12.50;99.90
19870;DHT22;10097;50.862;4.696;2022-11-02T08:27:30;12.60;99.90
19870;DHT22;10097;50.862;4.696;2022-11-02T08:29:55;12.60;99.90
19870;DHT22;10097;50.862;4.696;2022-11-02T08:32:21;12.60;99.90
19870;DHT22;10097;50.862;4.696;2022-11-02T08:34:49;12.60;99.90
19870;DHT22;10097;50.862;4.696;2022-11-02T08:37:14;12.60;99.90
19870;DHT22;10097;50.862;4.696;2022-11-02T08:39:40;12.60;99.90
19870;DHT22;10097;50.862;4.696;2022-11-02T08:42:06;12.70;99.90
19870;DHT22;10097;50.862;4.696;2022-11-02T08:44:31;12.70;99.90
19870;DHT22;10097;50.862;4.696;2022-11-02T08:46:57;12.80;99.90
19870;DHT22;10097;50.862;4.696;2022-11-02T08:49:23;12.90;99.90
19870;DHT22;10097;50.862;4.696;2022-11-02T08:51:48;12.90;99.90
19870;DHT22;10097;50.862;4.696;2022-11-02T08:54:19;12.90;99.90
19870;DHT22;10097;50.862;4.696;2022-11-02T08:56:45;12.90;99.90
19870;DHT22;10097;50.862;4.696;2022-11-02T08:59:10;13.00;99.90
19870;DHT22;10097;50.862;4.696;2022-11-02T09:01:36;13.20;99.90
19870;DHT22;10097;50.862;4.696;2022-11-02T09:04:03;13.50;99.90
19870;DHT22;10097;50.862;4.696;2022-11-02T09:06:29;13.50;99.90
19870;DHT22;10097;50.862;4.696;2022-11-02T09:08:54;13.60;99.90
19870;DHT22;10097;50.862;4.696;2022-11-02T09:11:20;13.70;99.90
19870;DHT22;10097;50.862;4.696;2022-11-02T09:13:46;13.80;99.90
19870;DHT22;10097;50.862;4.696;2022-11-02T09:16:11;13.70;99.90
19870;DHT22;10097;50.862;4.696;2022-11-02T09:18:37;13.70;99.90
19870;DHT22;10097;50.862;4.696;2022-11-02T09:21:03;13.60;99.90
19870;DHT22;10097;50.862;4.696;2022-11-02T09:23:29;13.60;99.90
19870;DHT22;10097;50.862;4.696;2022-11-02T09:25:56;13.60;99.90
19870;DHT22;10097;50.862;4.696;2022-11-02T09:28:22;13.70;99.90
19870;DHT22;10097;50.862;4.696;2022-11-02T09:30:48;13.80;99.90
19870;DHT22;10097;50.862;4.696;2022-11-02T09:33:14;13.80;99.90
19870;DHT22;10097;50.862;4.696;2022-11-02T09:35:45;13.90;99.90
19870;DHT22;10097;50.862;4.696;2022-11-02T09:38:12;13.90;99.90
19870;DHT22;10097;50.862;4.696;2022-11-02T09:43:13;13.90;99.90
19870;DHT22;10097;50.862;4.696;2022-11-02T09:46:04;13.90;99.90
19870;DHT22;10097;50.862;4.696;2022-11-02T09:48:42;14.00;99.90
19870;DHT22;10097;50.862;4.696;2022-11-02T09:51:12;14.00;99.90
19870;DHT22;10097;50.862;4.696;2022-11-02T09:53:58;14.00;99.90
19870;DHT22;10097;50.862;4.696;2022-11-02T09:56:25;14.00;99.90
19870;DHT22;10097;50.862;4.696;2022-11-02T10:14:36;14.20;99.90
19870;DHT22;10097;50.862;4.696;2022-11-02T10:17:19;14.30;99.90
19870;DHT22;10097;50.862;4.696;2022-11-02T10:19:52;14.40;99.90
19870;DHT22;10097;50.862;4.696;2022-11-02T10:22:19;14.40;99.90
19870;DHT22;10097;50.862;4.696;2022-11-02T10:24:47;14.50;99.90
19870;DHT22;10097;50.862;4.696;2022-11-02T10:27:26;14.50;99.90
19870;DHT22;10097;50.862;4.696;2022-11-02T10:29:55;14.50;99.90
19870;DHT22;10097;50.862;4.696;2022-11-02T10:32:21;14.50;99.90
19870;DHT22;10097;50.862;4.696;2022-11-02T10:34:47;14.60;99.90
19870;DHT22;10097;50.862;4.696;2022-11-02T10:45:37;14.80;99.90
19870;DHT22;10097;50.862;4.696;2022-11-02T10:51:09;14.70;99.90
19870;DHT22;10097;50.862;4.696;2022-11-02T10:53:41;14.70;99.90
19870;DHT22;10097;50.862;4.696;2022-11-02T10:56:24;14.90;99.90
19870;DHT22;10097;50.862;4.696;2022-11-02T10:59:17;15.20;99.90
19870;DHT22;10097;50.862;4.696;2022-11-02T11:04:26;15.50;99.90
19870;DHT22;10097;50.862;4.696;2022-11-02T11:06:54;15.50;99.90
19870;DHT22;10097;50.862;4.696;2022-11-02T11:09:25;15.60;99.90
19870;DHT22;10097;50.862;4.696;2022-11-02T11:12:01;15.50;99.90
19870;DHT22;10097;50.862;4.696;2022-11-02T11:14:29;15.70;99.90
19870;DHT22;10097;50.862;4.696;2022-11-02T11:17:00;15.80;99.90
19870;DHT22;10097;50.862;4.696;2022-11-02T11:19:40;15.90;99.90
19870;DHT22;10097;50.862;4.696;2022-11-02T11:22:40;16.10;99.90
19870;DHT22;10097;50.862;4.696;2022-11-02T11:27:57;16.40;99.90
19870;DHT22;10097;50.862;4.696;2022-11-02T11:30:31;16.40;99.90
19870;DHT22;10097;50.862;4.696;2022-11-02T11:32:59;16.50;99.90
19870;DHT22;10097;50.862;4.696;2022-11-02T11:35:36;16.40;99.90
19870;DHT22;10097;50.862;4.696;2022-11-02T11:38:06;16.50;99.90
19870;DHT22;10097;50.862;4.696;2022-11-02T11:40:37;16.70;99.90
19870;DHT22;10097;50.862;4.696;2022-11-02T11:43:09;16.80;99.90
19870;DHT22;10097;50.862;4.696;2022-11-02T11:45:36;17.00;99.90
19870;DHT22;10097;50.862;4.696;2022-11-02T11:50:34;17.20;99.90
19870;DHT22;10097;50.862;4.696;2022-11-02T11:55:49;17.30;99.90
19870;DHT22;10097;50.862;4.696;2022-11-02T12:00:44;17.30;99.90
19870;DHT22;10097;50.862;4.696;2022-11-02T12:03:12;17.10;99.90
19870;DHT22;10097;50.862;4.696;2022-11-02T12:06:27;17.00;99.90
19870;DHT22;10097;50.862;4.696;2022-11-02T12:19:31;17.90;99.90
19870;DHT22;10097;50.862;4.696;2022-11-02T12:27:56;17.60;99.90
19870;DHT22;10097;50.862;4.696;2022-11-02T12:45:00;19.00;99.90
19870;DHT22;10097;50.862;4.696;2022-11-02T12:47:47;18.80;99.90
19870;DHT22;10097;50.862;4.696;2022-11-02T12:52:57;18.90;99.90
19870;DHT22;10097;50.862;4.696;2022-11-02T12:55:29;19.10;99.90
19870;DHT22;10097;50.862;4.696;2022-11-02T12:58:20;18.90;99.90
19870;DHT22;10097;50.862;4.696;2022-11-02T13:00:49;18.90;99.90
19870;DHT22;10097;50.862;4.696;2022-11-02T13:03:41;18.90;99.90
19870;DHT22;10097;50.862;4.696;2022-11-02T13:06:12;18.70;99.90
19870;DHT22;10097;50.862;4.696;2022-11-02T13:08:56;18.80;99.90
19870;DHT22;10097;50.862;4.696;2022-11-02T13:11:37;18.80;99.90
19870;DHT22;10097;50.862;4.696;2022-11-02T13:14:08;18.80;99.90
19870;DHT22;10097;50.862;4.696;2022-11-02T13:16:41;18.60;99.90
19870;DHT22;10097;50.862;4.696;2022-11-02T13:19:22;18.60;99.90
19870;DHT22;10097;50.862;4.696;2022-11-02T13:21:55;18.60;99.90
19870;DHT22;10097;50.862;4.696;2022-11-02T13:24:26;18.80;99.90
19870;DHT22;10097;50.862;4.696;2022-11-02T13:26:54;18.70;99.90
19870;DHT22;10097;50.862;4.696;2022-11-02T13:29:39;18.80;99.90
19870;DHT22;10097;50.862;4.696;2022-11-02T13:32:29;18.60;99.90
19870;DHT22;10097;50.862;4.696;2022-11-02T13:34:58;18.20;99.90
19870;DHT22;10097;50.862;4.696;2022-11-02T13:37:36;18.40;99.90
19870;DHT22;10097;50.862;4.696;2022-11-02T13:40:14;18.40;99.90
19870;DHT22;10097;50.862;4.696;2022-11-02T13:51:37;18.20;99.90
19870;DHT22;10097;50.862;4.696;2022-11-02T13:54:11;18.00;99.90
19870;DHT22;10097;50.862;4.696;2022-11-02T13:56:39;17.90;99.90
19870;DHT22;10097;50.862;4.696;2022-11-02T13:59:20;17.80;99.90
19870;DHT22;10097;50.862;4.696;2022-11-02T14:01:47;18.00;99.90
19870;DHT22;10097;50.862;4.696;2022-11-02T14:04:15;18.30;99.90
19870;DHT22;10097;50.862;4.696;2022-11-02T14:06:54;18.50;99.90
19870;DHT22;10097;50.862;4.696;2022-11-02T14:09:37;18.40;99.90
19870;DHT22;10097;50.862;4.696;2022-11-02T14:14:38;18.80;99.90
19870;DHT22;10097;50.862;4.696;2022-11-02T14:17:31;18.90;99.90
19870;DHT22;10097;50.862;4.696;2022-11-02T14:25:54;19.00;99.90
19870;DHT22;10097;50.862;4.696;2022-11-02T14:33:54;19.60;99.90
19870;DHT22;10097;50.862;4.696;2022-11-02T14:36:42;19.60;99.90
19870;DHT22;10097;50.862;4.696;2022-11-02T14:41:56;19.20;99.90
19870;DHT22;10097;50.862;4.696;2022-11-02T14:47:19;18.80;99.90
19870;DHT22;10097;50.862;4.696;2022-11-02T14:49:56;18.80;99.90
19870;DHT22;10097;50.862;4.696;2022-11-02T14:57:41;18.60;99.90
19870;DHT22;10097;50.862;4.696;2022-11-02T15:00:32;18.60;99.90
19870;DHT22;10097;50.862;4.696;2022-11-02T15:03:00;18.60;99.90
19870;DHT22;10097;50.862;4.696;2022-11-02T15:05:35;18.60;99.90
19870;DHT22;10097;50.862;4.696;2022-11-02T15:08:23;18.40;99.90
19870;DHT22;10097;50.862;4.696;2022-11-02T15:10:51;18.10;99.90
19870;DHT22;10097;50.862;4.696;2022-11-02T15:16:30;18.00;99.90
19870;DHT22;10097;50.862;4.696;2022-11-02T15:26:12;17.70;99.90
19870;DHT22;10097;50.862;4.696;2022-11-02T15:28:42;17.50;99.90
19870;DHT22;10097;50.862;4.696;2022-11-02T15:31:27;17.40;99.90
19870;DHT22;10097;50.862;4.696;2022-11-02T15:33:56;17.30;99.90
19870;DHT22;10097;50.862;4.696;2022-11-02T15:36:34;17.20;99.90
19870;DHT22;10097;50.862;4.696;2022-11-02T15:39:03;17.00;99.90
19870;DHT22;10097;50.862;4.696;2022-11-02T15:41:37;16.80;99.90
19870;DHT22;10097;50.862;4.696;2022-11-02T15:44:23;16.50;99.90
19870;DHT22;10097;50.862;4.696;2022-11-02T15:47:24;16.30;99.90
19870;DHT22;10097;50.862;4.696;2022-11-02T15:52:52;15.90;99.90
19870;DHT22;10097;50.862;4.696;2022-11-02T16:00:23;15.60;99.90
19870;DHT22;10097;50.862;4.696;2022-11-02T16:03:04;15.50;99.90
19870;DHT22;10097;50.862;4.696;2022-11-02T16:08:02;15.40;99.90
19870;DHT22;10097;50.862;4.696;2022-11-02T16:10:30;15.30;99.90
19870;DHT22;10097;50.862;4.696;2022-11-02T16:13:14;15.10;99.90
19870;DHT22;10097;50.862;4.696;2022-11-02T16:15:41;14.90;99.90
19870;DHT22;10097;50.862;4.696;2022-11-02T16:18:29;14.70;99.90
19870;DHT22;10097;50.862;4.696;2022-11-02T16:20:57;14.60;99.90
19870;DHT22;10097;50.862;4.696;2022-11-02T16:23:28;14.50;99.90
19870;DHT22;10097;50.862;4.696;2022-11-02T16:25:56;14.40;99.90
19870;DHT22;10097;50.862;4.696;2022-11-02T16:28:27;14.30;99.90
19870;DHT22;10097;50.862;4.696;2022-11-02T16:31:06;14.30;99.90
19870;DHT22;10097;50.862;4.696;2022-11-02T16:33:49;14.20;99.90
19870;DHT22;10097;50.862;4.696;2022-11-02T16:36:20;14.20;99.90
19870;DHT22;10097;50.862;4.696;2022-11-02T16:38:58;14.10;99.90
19870;DHT22;10097;50.862;4.696;2022-11-02T16:41:32;14.10;99.90
19870;DHT22;10097;50.862;4.696;2022-11-02T16:47:37;14.00;99.90
19870;DHT22;10097;50.862;4.696;2022-11-02T16:50:22;13.90;99.90
19870;DHT22;10097;50.862;4.696;2022-11-02T16:52:55;13.90;99.90
19870;DHT22;10097;50.862;4.696;2022-11-02T16:55:41;13.70;99.90
19870;DHT22;10097;50.862;4.696;2022-11-02T16:58:14;13.70;99.90
19870;DHT22;10097;50.862;4.696;2022-11-02T17:00:57;13.70;99.90
19870;DHT22;10097;50.862;4.696;2022-11-02T17:03:28;13.70;99.90
19870;DHT22;10097;50.862;4.696;2022-11-02T17:05:56;13.70;99.90
19870;DHT22;10097;50.862;4.696;2022-11-02T17:10:54;13.70;99.90
19870;DHT22;10097;50.862;4.696;2022-11-02T17:13:20;13.60;99.90
19870;DHT22;10097;50.862;4.696;2022-11-02T17:15:48;13.40;99.90
19870;DHT22;10097;50.862;4.696;2022-11-02T17:18:24;13.40;99.90
19870;DHT22;10097;50.862;4.696;2022-11-02T17:23:42;13.30;99.90
19870;DHT22;10097;50.862;4.696;2022-11-02T17:26:29;13.30;99.90
19870;DHT22;10097;50.862;4.696;2022-11-02T17:29:01;13.30;99.90
19870;DHT22;10097;50.862;4.696;2022-11-02T17:31:34;13.40;99.90
19870;DHT22;10097;50.862;4.696;2022-11-02T17:34:15;13.30;99.90
19870;DHT22;10097;50.862;4.696;2022-11-02T17:36:42;13.40;99.90
19870;DHT22;10097;50.862;4.696;2022-11-02T17:39:18;13.50;99.90
19870;DHT22;10097;50.862;4.696;2022-11-02T17:41:46;13.50;99.90
19870;DHT22;10097;50.862;4.696;2022-11-02T17:44:31;13.40;99.90
19870;DHT22;10097;50.862;4.696;2022-11-02T17:46:56;13.40;99.90
19870;DHT22;10097;50.862;4.696;2022-11-02T17:49:22;13.40;99.90
19870;DHT22;10097;50.862;4.696;2022-11-02T17:51:48;13.40;99.90
19870;DHT22;10097;50.862;4.696;2022-11-02T17:54:14;13.40;99.90
19870;DHT22;10097;50.862;4.696;2022-11-02T17:56:40;13.30;99.90
19870;DHT22;10097;50.862;4.696;2022-11-02T17:59:06;13.40;99.90
19870;DHT22;10097;50.862;4.696;2022-11-02T18:01:32;13.50;99.90
19870;DHT22;10097;50.862;4.696;2022-11-02T18:03:57;13.50;99.90
19870;DHT22;10097;50.862;4.696;2022-11-02T18:06:23;13.50;99.90
19870;DHT22;10097;50.862;4.696;2022-11-02T18:08:49;13.50;99.90
19870;DHT22;10097;50.862;4.696;2022-11-02T18:11:33;13.50;99.90
19870;DHT22;10097;50.862;4.696;2022-11-02T18:13:58;13.50;99.90
19870;DHT22;10097;50.862;4.696;2022-11-02T18:16:24;13.50;99.90
19870;DHT22;10097;50.862;4.696;2022-11-02T18:18:52;13.50;99.90
19870;DHT22;10097;50.862;4.696;2022-11-02T18:21:23;13.50;99.90
19870;DHT22;10097;50.862;4.696;2022-11-02T18:23:52;13.50;99.90
19870;DHT22;10097;50.862;4.696;2022-11-02T18:26:20;13.50;99.90
19870;DHT22;10097;50.862;4.696;2022-11-02T18:28:51;13.50;99.90
19870;DHT22;10097;50.862;4.696;2022-11-02T18:31:17;13.50;99.90